Time;durP1;ratioP1;P1;durP2;ratioP2;P2;SDS_P1;SDS_P2;PMS_P1;PMS_P2;Temp;Humidity;BMP_temperature;BMP_pressure;BME280_temperature;BME280_humidity;BME280_pressure;Samples;Min_cycle;Max_cycle;Signal;HPM_P1;HPM_P2
2022/06/20 00:00:30;;;;;;;1.58;0.70;;;;;;;20.67;48.59;101734.25;4938149;29;20052;-74
2022/06/20 00:03:00;;;;;;;2.15;0.50;;;;;;;20.65;50.83;101728.09;4926732;29;20107;-72
2022/06/20 00:05:31;;;;;;;0.93;0.60;;;;;;;20.66;49.83;101726.34;4937602;29;20154;-75
2022/06/20 00:08:00;;;;;;;1.38;0.60;;;;;;;20.67;50.16;101723.72;4925983;29;20051;-73
2022/06/20 00:10:30;;;;;;;0.50;0.40;;;;;;;20.69;49.63;101722.00;4929108;29;20547;-74
2022/06/20 00:13:01;;;;;;;0.90;0.60;;;;;;;20.74;49.93;101723.75;4932238;29;20111;-74
2022/06/20 00:15:34;;;;;;;0.88;0.63;;;;;;;20.76;49.57;101724.66;4934729;29;20056;-74
2022/06/20 00:18:05;;;;;;;1.25;0.80;;;;;;;20.78;49.41;101723.78;4929583;29;20047;-74
2022/06/20 00:20:33;;;;;;;0.93;0.52;;;;;;;20.78;49.38;101725.53;4932897;29;20048;-75
2022/06/20 00:23:02;;;;;;;1.40;0.70;;;;;;;20.75;49.90;101726.38;4931805;29;20099;-75
2022/06/20 00:25:31;;;;;;;2.05;0.63;;;;;;;20.68;49.39;101720.25;4927588;29;20568;-73
2022/06/20 00:28:01;;;;;;;0.60;0.32;;;;;;;20.64;49.18;101723.72;4931285;29;20082;-74
2022/06/20 00:30:30;;;;;;;1.13;0.60;;;;;;;20.56;49.49;101728.06;4940977;29;20056;-74
2022/06/20 00:32:58;;;;;;;1.58;0.50;;;;;;;20.42;50.81;101721.84;4934118;29;20115;-76
2022/06/20 00:35:27;;;;;;;1.33;0.70;;;;;;;20.23;51.00;101721.78;4936346;29;20095;-75
2022/06/20 00:37:58;;;;;;;1.20;0.70;;;;;;;20.17;51.46;101727.00;4933109;29;20056;-75
2022/06/20 00:40:33;;;;;;;0.82;0.50;;;;;;;20.15;51.67;101720.84;4934258;29;21132;-75
2022/06/20 00:43:05;;;;;;;3.47;1.13;;;;;;;20.16;51.76;101725.25;4933871;29;20048;-74
2022/06/20 00:45:39;;;;;;;1.40;0.85;;;;;;;20.16;52.29;101721.72;4932560;29;20044;-74
2022/06/20 00:48:13;;;;;;;1.17;0.75;;;;;;;20.14;52.69;101726.97;4925859;29;20055;-74
2022/06/20 00:50:41;;;;;;;1.83;0.60;;;;;;;20.12;52.63;101723.47;4941989;29;20052;-74
2022/06/20 00:53:18;;;;;;;1.08;0.52;;;;;;;20.12;52.09;101726.09;4925544;29;20048;-75
2022/06/20 00:55:50;;;;;;;1.25;0.50;;;;;;;20.12;52.34;101717.34;4935694;28;20533;-76
2022/06/20 00:58:33;;;;;;;1.80;0.70;;;;;;;20.12;52.26;101723.47;4925595;29;20048;-76
2022/06/20 01:01:03;;;;;;;1.45;0.70;;;;;;;20.11;53.27;101726.94;4923204;29;20052;-74
2022/06/20 01:03:35;;;;;;;0.70;0.40;;;;;;;20.11;53.08;101726.94;4931447;29;20048;-74
2022/06/20 01:06:08;;;;;;;0.90;0.60;;;;;;;20.14;53.62;101731.38;4933163;29;20047;-74
2022/06/20 01:08:43;;;;;;;2.05;0.60;;;;;;;20.13;52.21;101719.94;4933748;29;20059;-74
2022/06/20 01:11:18;;;;;;;1.73;0.88;;;;;;;20.16;52.79;101729.59;4933077;29;20050;-74
2022/06/20 01:13:49;;;;;;;0.68;0.50;;;;;;;20.15;52.17;101726.09;4933921;29;20392;-75
2022/06/20 01:16:25;;;;;;;1.40;0.77;;;;;;;20.14;53.12;101732.25;4929946;29;20051;-75
2022/06/20 01:18:55;;;;;;;1.20;0.70;;;;;;;20.14;53.43;101723.47;4931587;29;20490;-77
2022/06/20 01:21:25;;;;;;;0.77;0.40;;;;;;;20.12;52.41;101727.84;4933880;29;20135;-75
2022/06/20 01:24:03;;;;;;;2.53;0.60;;;;;;;20.10;52.94;101725.19;4933935;29;20486;-75
2022/06/20 01:26:43;;;;;;;1.17;0.60;;;;;;;20.08;52.47;101726.94;4927514;29;20135;-74
2022/06/20 01:29:14;;;;;;;0.73;0.40;;;;;;;20.03;53.53;101732.16;4934615;29;20600;-74
2022/06/20 01:31:46;;;;;;;0.68;0.50;;;;;;;20.02;52.79;101729.53;4925887;29;20135;-75
2022/06/20 01:34:17;;;;;;;0.60;0.40;;;;;;;20.00;53.78;101731.28;4928319;29;20135;-74
2022/06/20 01:39:37;;;;;;;0.80;0.50;;;;;;;19.97;53.80;101731.25;4928044;29;20055;-75
2022/06/20 01:42:18;;;;;;;1.85;0.60;;;;;;;19.96;54.19;101733.00;4928842;29;20387;-77
2022/06/20 01:44:50;;;;;;;1.65;0.60;;;;;;;19.92;53.81;101730.34;4927322;29;20060;-75
2022/06/20 01:47:19;;;;;;;0.95;0.57;;;;;;;19.87;54.26;101727.69;4937670;29;20123;-74
2022/06/20 01:49:52;;;;;;;1.60;0.50;;;;;;;19.86;54.18;101733.81;4933156;29;20513;-75
2022/06/20 01:52:26;;;;;;;0.93;0.50;;;;;;;19.84;54.39;101740.81;4925121;29;20043;-76
2022/06/20 01:55:06;;;;;;;3.88;0.75;;;;;;;19.80;54.27;101737.28;4928529;28;20102;-75
2022/06/20 01:57:37;;;;;;;1.17;0.70;;;;;;;19.72;54.12;101723.19;4932167;29;20455;-74
2022/06/20 02:00:12;;;;;;;2.15;0.80;;;;;;;19.78;55.50;101735.50;4925046;29;20062;-75
2022/06/20 02:02:44;;;;;;;2.05;0.73;;;;;;;19.74;55.85;101726.72;4927929;29;20059;-76
2022/06/20 02:05:16;;;;;;;1.65;0.65;;;;;;;19.71;55.76;101737.22;4928948;29;20055;-76
2022/06/20 02:07:45;;;;;;;2.30;0.85;;;;;;;19.70;58.02;101732.84;4918580;29;20118;-76
2022/06/20 02:10:19;;;;;;;3.95;0.95;;;;;;;19.64;59.35;101724.88;4934162;29;20052;-76
2022/06/20 02:12:49;;;;;;;0.95;0.40;;;;;;;19.65;57.19;101734.50;4920556;29;20185;-75
2022/06/20 02:15:21;;;;;;;1.83;0.55;;;;;;;19.61;57.91;101737.97;4931879;29;20051;-76
2022/06/20 02:17:52;;;;;;;0.60;0.50;;;;;;;19.58;59.56;101730.06;4930263;29;20570;-75
2022/06/20 02:20:25;;;;;;;1.52;0.70;;;;;;;19.53;62.08;101727.41;4935489;29;20132;-76
2022/06/20 02:22:55;;;;;;;1.00;0.70;;;;;;;19.46;61.45;101729.09;4929152;29;20047;-77
2022/06/20 02:25:27;;;;;;;1.23;0.90;;;;;;;19.45;61.29;101735.22;4928759;29;20107;-77
2022/06/20 02:28:00;;;;;;;2.40;1.08;;;;;;;19.42;62.57;101739.56;4931818;29;20059;-77
2022/06/20 02:30:31;;;;;;;2.10;0.75;;;;;;;19.35;62.93;101733.38;4932070;29;20414;-77
2022/06/20 02:33:05;;;;;;;2.03;0.70;;;;;;;19.24;63.35;101735.91;4926335;29;20048;-76
2022/06/20 02:35:35;;;;;;;1.00;0.50;;;;;;;19.15;64.56;101750.66;4926146;29;20131;-76
2022/06/20 02:38:04;;;;;;;1.20;0.60;;;;;;;18.99;65.68;101745.28;4922074;29;20138;-76
2022/06/20 02:40:33;;;;;;;0.82;0.47;;;;;;;18.81;66.36;101724.13;4933155;29;20115;-76
2022/06/20 02:43:06;;;;;;;1.27;0.50;;;;;;;18.78;67.56;101740.69;4927549;29;20044;-77
2022/06/20 02:45:39;;;;;;;1.60;0.52;;;;;;;18.75;66.11;101747.59;4929178;29;20106;-77
2022/06/20 02:48:10;;;;;;;1.30;0.63;;;;;;;18.75;65.54;101743.22;4924220;29;20054;-75
2022/06/20 02:50:45;;;;;;;1.05;0.70;;;;;;;18.79;65.97;101738.94;4926345;29;20592;-75
2022/06/20 02:53:19;;;;;;;0.85;0.60;;;;;;;18.81;65.62;101740.72;4928655;29;20068;-75
2022/06/20 02:55:50;;;;;;;2.28;0.47;;;;;;;18.82;64.91;101741.59;4933887;28;20056;-75
2022/06/20 02:58:22;;;;;;;2.17;0.60;;;;;;;18.80;64.98;101738.94;4920180;29;20048;-75
2022/06/20 03:01:04;;;;;;;0.88;0.50;;;;;;;18.77;65.62;101745.91;4925929;29;20052;-75
2022/06/20 03:03:38;;;;;;;1.75;0.68;;;;;;;18.73;65.93;101741.44;4930710;29;20211;-76
2022/06/20 03:06:11;;;;;;;0.80;0.52;;;;;;;18.70;65.46;101742.31;4933254;29;20055;-74
2022/06/20 03:08:40;;;;;;;2.95;0.68;;;;;;;18.70;66.71;101741.44;4930052;29;20044;-75
2022/06/20 03:11:11;;;;;;;0.90;0.50;;;;;;;18.70;67.18;101738.81;4930638;29;20540;-75
2022/06/20 03:13:41;;;;;;;1.20;0.40;;;;;;;18.70;66.91;101736.19;4926463;29;20044;-75
2022/06/20 03:16:11;;;;;;;2.15;0.50;;;;;;;18.69;67.15;101742.28;4925946;29;20136;-75
2022/06/20 03:18:43;;;;;;;0.98;0.60;;;;;;;18.69;67.57;101744.88;4929603;29;20052;-75
2022/06/20 03:21:13;;;;;;;0.90;0.45;;;;;;;18.70;66.91;101746.66;4931573;29;20098;-77
2022/06/20 03:23:41;;;;;;;2.95;0.70;;;;;;;18.69;64.66;101748.41;4927315;29;20201;-76
2022/06/20 03:26:18;;;;;;;1.23;0.60;;;;;;;18.65;64.33;101754.47;4927051;29;20056;-75
2022/06/20 03:28:47;;;;;;;2.33;0.57;;;;;;;18.60;64.17;101757.03;4932166;29;20052;-75
2022/06/20 03:31:17;;;;;;;0.73;0.43;;;;;;;18.60;63.52;101758.78;4927281;29;20111;-75
2022/06/20 03:33:46;;;;;;;1.10;0.60;;;;;;;18.60;64.54;101757.03;4928346;29;20399;-75
2022/06/20 03:36:19;;;;;;;0.57;0.30;;;;;;;18.59;63.26;101755.25;4924555;29;20502;-75
2022/06/20 03:38:49;;;;;;;0.30;0.30;;;;;;;18.57;63.69;101757.00;4927006;29;20052;-76
2022/06/20 03:41:22;;;;;;;1.48;0.50;;;;;;;18.55;64.71;101752.59;4921550;29;20060;-75
2022/06/20 03:43:54;;;;;;;0.50;0.40;;;;;;;18.52;64.00;101753.44;4916085;29;20058;-77
2022/06/20 03:46:29;;;;;;;1.00;0.60;;;;;;;18.45;63.15;101748.09;4928733;29;20133;-75
2022/06/20 03:49:02;;;;;;;0.50;0.30;;;;;;;18.39;62.94;101755.03;4919336;29;20059;-75
2022/06/20 03:51:37;;;;;;;0.65;0.50;;;;;;;18.35;63.76;101754.97;4922177;29;20047;-75
2022/06/20 03:54:09;;;;;;;0.52;0.40;;;;;;;18.29;62.13;101754.88;4924192;29;20052;-75
2022/06/20 03:56:50;;;;;;;0.47;0.40;;;;;;;18.21;62.20;101744.31;4931698;28;20083;-76
2022/06/20 03:59:23;;;;;;;0.60;0.50;;;;;;;18.14;62.33;101745.06;4925512;29;20052;-75
2022/06/20 04:02:00;;;;;;;0.77;0.50;;;;;;;18.07;62.69;101749.31;4923764;29;20048;-75
2022/06/20 04:04:32;;;;;;;0.90;0.40;;;;;;;17.99;62.72;101748.34;4932094;29;20058;-75
2022/06/20 04:07:04;;;;;;;0.50;0.35;;;;;;;17.91;62.99;101753.47;4915935;29;20498;-76
2022/06/20 04:12:27;;;;;;;0.80;0.50;;;;;;;17.79;62.32;101763.72;4917696;29;20184;-75
2022/06/20 04:14:59;;;;;;;0.93;0.30;;;;;;;17.73;62.67;101761.88;4921435;29;20044;-75
2022/06/20 04:20:30;;;;;;;0.68;0.30;;;;;;;17.64;63.35;101772.22;4931122;29;20074;-75
2022/06/20 04:23:00;;;;;;;0.73;0.40;;;;;;;17.58;63.32;101770.34;4932061;29;20500;-75
2022/06/20 04:25:37;;;;;;;0.60;0.40;;;;;;;17.44;63.74;101764.00;4924814;29;20044;-75
2022/06/20 04:28:16;;;;;;;0.70;0.40;;;;;;;17.47;63.96;101778.88;4932086;29;20047;-75
2022/06/20 04:30:48;;;;;;;1.05;0.45;;;;;;;17.43;64.51;101779.66;4926515;29;20044;-75
2022/06/20 04:33:24;;;;;;;0.50;0.40;;;;;;;17.38;64.94;101783.13;4925918;29;20043;-76
2022/06/20 04:36:07;;;;;;;0.80;0.50;;;;;;;17.31;64.62;101786.44;4938245;29;20498;-75
2022/06/20 04:38:45;;;;;;;0.60;0.50;;;;;;;17.25;65.80;101791.59;4935034;29;20111;-75
2022/06/20 04:41:18;;;;;;;5.03;0.65;;;;;;;17.17;67.89;101801.88;4934316;29;20135;-75
2022/06/20 04:43:55;;;;;;;0.80;0.40;;;;;;;17.11;68.29;101798.25;4928043;29;20118;-75
2022/06/20 04:46:27;;;;;;;1.02;0.60;;;;;;;17.05;67.77;101801.66;4928494;29;20072;-75
2022/06/20 04:49:00;;;;;;;0.77;0.50;;;;;;;17.01;67.43;101796.34;4928019;29;20410;-75
2022/06/20 04:51:35;;;;;;;2.20;0.40;;;;;;;16.95;67.99;101811.06;4934415;29;20048;-75
2022/06/20 04:54:05;;;;;;;5.10;0.77;;;;;;;16.91;68.13;101811.84;4935217;29;20051;-75
2022/06/20 04:56:34;;;;;;;1.58;0.40;;;;;;;16.86;68.42;101813.50;4933567;28;20582;-75
2022/06/20 04:59:05;;;;;;;7.93;0.68;;;;;;;16.81;70.28;101816.84;4934694;29;20059;-75
2022/06/20 05:01:36;;;;;;;1.27;0.50;;;;;;;16.75;70.12;101809.72;4931369;29;20161;-75
2022/06/20 05:04:24;;;;;;;0.45;0.40;;;;;;;16.70;70.11;101816.59;4932107;29;20051;-75
2022/06/20 05:06:54;;;;;;;0.85;0.50;;;;;;;16.61;69.34;101814.66;4932794;29;20067;-75
2022/06/20 05:09:29;;;;;;;1.35;0.52;;;;;;;16.55;69.35;101820.63;4932336;29;20470;-74
2022/06/20 05:12:07;;;;;;;1.02;0.40;;;;;;;16.50;69.41;101818.78;4930349;29;20051;-74
2022/06/20 05:14:44;;;;;;;0.85;0.47;;;;;;;16.47;69.66;101824.81;4929708;29;20052;-75
2022/06/20 05:17:19;;;;;;;0.88;0.50;;;;;;;16.45;69.23;101823.03;4934813;29;20104;-74
2022/06/20 05:19:52;;;;;;;3.00;0.70;;;;;;;16.43;69.74;101828.19;4939340;29;20043;-75
2022/06/20 05:22:27;;;;;;;1.23;0.40;;;;;;;16.44;70.01;101831.69;4926572;29;20043;-74
2022/06/20 05:24:58;;;;;;;1.20;0.60;;;;;;;16.43;69.80;101828.19;4931842;29;20051;-74
2022/06/20 05:27:30;;;;;;;1.98;0.80;;;;;;;16.43;70.46;101835.16;4933903;29;20548;-75
2022/06/20 05:30:07;;;;;;;2.10;0.60;;;;;;;16.35;70.16;101829.75;4931843;29;20054;-74
2022/06/20 05:32:42;;;;;;;2.33;0.70;;;;;;;16.42;70.31;101839.47;4932752;29;20143;-74
2022/06/20 05:35:18;;;;;;;0.77;0.52;;;;;;;16.39;70.28;101847.25;4930383;29;20525;-75
2022/06/20 05:37:52;;;;;;;0.88;0.52;;;;;;;16.36;70.48;101847.19;4926114;29;20051;-75
2022/06/20 05:40:27;;;;;;;0.98;0.55;;;;;;;16.34;70.24;101851.50;4929744;29;20462;-75
2022/06/20 05:42:56;;;;;;;1.45;0.50;;;;;;;16.34;70.52;101854.13;4930953;29;20059;-74
2022/06/20 05:45:26;;;;;;;1.85;0.57;;;;;;;16.33;70.53;101857.56;4937730;28;20047;-75
2022/06/20 05:47:56;;;;;;;1.25;0.45;;;;;;;16.32;71.03;101861.03;4933806;29;20052;-74
2022/06/20 05:50:40;;;;;;;2.72;0.55;;;;;;;16.32;71.50;101855.81;4936189;29;20047;-74
2022/06/20 05:53:14;;;;;;;0.75;0.38;;;;;;;16.26;72.11;101846.09;4929434;29;20551;-74
2022/06/20 05:55:46;;;;;;;2.30;0.50;;;;;;;16.32;72.91;101856.69;4933863;28;20139;-74
2022/06/20 05:58:20;;;;;;;1.83;0.47;;;;;;;16.30;73.48;101855.75;4935100;29;20201;-74
2022/06/20 06:00:51;;;;;;;0.95;0.65;;;;;;;16.28;73.94;101860.06;4932620;29;20417;-74
2022/06/20 06:03:25;;;;;;;0.60;0.55;;;;;;;16.26;72.93;101855.66;4929997;29;20060;-74
2022/06/20 06:06:00;;;;;;;0.90;0.40;;;;;;;16.24;72.43;101863.47;4932038;29;20201;-75
2022/06/20 06:08:32;;;;;;;1.30;0.40;;;;;;;16.21;72.77;101862.50;4930809;29;20039;-75
2022/06/20 06:11:05;;;;;;;1.05;0.75;;;;;;;16.18;71.86;101863.31;4932573;29;20111;-75
2022/06/20 06:13:42;;;;;;;0.65;0.43;;;;;;;16.14;71.95;101871.91;4932921;29;20099;-75
2022/06/20 06:19:07;;;;;;;3.45;0.70;;;;;;;16.09;73.26;101874.41;4938167;29;20134;-74
2022/06/20 06:21:38;;;;;;;1.35;0.70;;;;;;;16.08;73.03;101875.25;4933597;29;20051;-74
2022/06/20 06:24:11;;;;;;;3.95;0.70;;;;;;;16.06;73.38;101871.72;4932858;29;20051;-74
2022/06/20 06:26:43;;;;;;;1.52;0.60;;;;;;;16.05;73.65;101875.16;4930126;29;20058;-75
2022/06/20 06:29:18;;;;;;;1.35;0.75;;;;;;;16.04;74.16;101870.81;4940916;29;20498;-75
2022/06/20 06:31:51;;;;;;;1.92;0.60;;;;;;;16.02;74.08;101876.84;4931596;29;20056;-74
2022/06/20 06:34:24;;;;;;;1.23;0.45;;;;;;;16.01;74.39;101867.22;4937679;29;20501;-74
2022/06/20 06:36:59;;;;;;;3.00;0.60;;;;;;;16.00;74.51;101868.97;4931349;29;20098;-74
2022/06/20 06:39:34;;;;;;;1.65;0.70;;;;;;;15.99;74.54;101882.88;4931891;29;20111;-74
2022/06/20 06:42:06;;;;;;;0.60;0.50;;;;;;;15.97;74.94;101873.25;4926265;29;20043;-74
2022/06/20 06:44:41;;;;;;;2.78;0.50;;;;;;;15.96;75.46;101872.34;4936310;29;20461;-74
2022/06/20 06:47:19;;;;;;;4.95;0.73;;;;;;;15.94;74.92;101873.13;4926422;29;20499;-74
2022/06/20 06:49:51;;;;;;;0.80;0.47;;;;;;;15.90;74.42;101866.97;4932310;29;20537;-75
2022/06/20 06:52:27;;;;;;;2.63;0.50;;;;;;;15.88;74.93;101868.66;4919863;29;20751;-76
2022/06/20 06:55:00;;;;;;;2.30;0.45;;;;;;;15.87;74.97;101861.66;4921707;28;20059;-74
2022/06/20 06:57:34;;;;;;;1.17;0.47;;;;;;;15.85;74.36;101863.34;4927138;29;20494;-74
2022/06/20 07:00:26;;;;;;;1.38;0.55;;;;;;;15.82;74.95;101865.88;4920778;29;20048;-74
2022/06/20 07:02:58;;;;;;;2.47;0.50;;;;;;;15.81;74.63;101866.75;4931175;29;20273;-74
2022/06/20 07:05:34;;;;;;;1.08;0.50;;;;;;;15.80;73.81;101870.19;4925392;29;20048;-75
2022/06/20 07:08:11;;;;;;;0.65;0.35;;;;;;;15.79;72.80;101873.66;4920914;29;20055;-74
2022/06/20 07:10:47;;;;;;;1.75;0.40;;;;;;;15.75;73.63;101870.06;4919143;29;20103;-74
2022/06/20 07:13:30;;;;;;;1.58;0.30;;;;;;;15.73;73.94;101868.25;4929403;29;20051;-75
2022/06/20 07:16:01;;;;;;;;;;;;;;;15.73;73.71;101879.56;4933294;29;20051;-75
2022/06/20 07:18:41;;;;;;;0.90;0.40;;;;;;;15.73;74.43;101883.91;4935801;29;20368;-75
2022/06/20 07:21:12;;;;;;;0.30;0.20;;;;;;;15.72;74.74;101887.38;4922594;29;20052;-75
2022/06/20 07:23:45;;;;;;;0.97;0.50;;;;;;;15.71;75.47;101886.47;4917312;29;20048;-75
2022/06/20 07:26:15;;;;;;;;;;;;;;;15.69;75.07;101889.03;4919095;29;20495;-75
2022/06/20 07:28:48;;;;;;;2.25;0.40;;;;;;;15.69;77.07;101886.41;4922669;29;20337;-74
2022/06/20 07:31:22;;;;;;;0.60;0.40;;;;;;;15.67;76.03;101885.50;4929837;29;20059;-74
2022/06/20 07:33:55;;;;;;;2.35;0.50;;;;;;;15.63;75.80;101882.75;4922602;29;20047;-74
2022/06/20 07:36:29;;;;;;;0.98;0.50;;;;;;;15.62;74.56;101888.81;4927198;29;20040;-74
2022/06/20 07:39:04;;;;;;;1.63;0.40;;;;;;;15.60;74.80;101891.38;4933530;29;20193;-74
2022/06/20 07:41:40;;;;;;;2.50;0.50;;;;;;;15.60;74.50;101896.59;4931025;29;20052;-74
2022/06/20 07:44:14;;;;;;;0.60;0.32;;;;;;;15.59;74.51;101897.44;4928327;29;20047;-74
2022/06/20 07:46:46;;;;;;;3.20;0.55;;;;;;;15.57;73.84;101893.91;4929388;29;20075;-76
2022/06/20 07:49:17;;;;;;;;;;;;;;;15.56;74.42;101891.25;4927311;29;20048;-74
2022/06/20 07:51:49;;;;;;;1.13;0.35;;;;;;;15.55;74.77;101882.53;4927822;29;20001;-74
2022/06/20 07:54:24;;;;;;;0.95;0.75;;;;;;;15.56;74.09;101891.25;4928796;29;20071;-74
2022/06/20 07:56:59;;;;;;;0.90;0.47;;;;;;;15.55;75.24;101890.34;4908850;28;20053;-74
2022/06/20 07:59:35;;;;;;;0.65;0.40;;;;;;;15.54;74.82;101892.94;4900669;29;20108;-74
2022/06/20 08:02:09;;;;;;;0.60;0.40;;;;;;;15.52;74.65;101890.28;4913167;29;20077;-74
2022/06/20 08:04:39;;;;;;;1.77;0.38;;;;;;;15.50;74.44;101892.84;4905791;29;20049;-74
2022/06/20 08:07:14;;;;;;;0.93;0.40;;;;;;;15.49;74.15;101891.09;4907517;29;20056;-74
2022/06/20 08:09:52;;;;;;;1.58;0.40;;;;;;;15.48;74.32;101888.44;4911085;29;20138;-74
2022/06/20 08:12:26;;;;;;;0.70;0.45;;;;;;;15.47;73.75;101892.78;4911367;29;20142;-75
2022/06/20 08:15:00;;;;;;;1.25;0.50;;;;;;;15.42;72.76;101890.88;4912857;29;20127;-75
2022/06/20 08:17:32;;;;;;;0.88;0.60;;;;;;;15.40;74.69;101892.56;4919720;29;20049;-75
2022/06/20 08:20:02;;;;;;;0.88;0.50;;;;;;;15.39;75.05;101893.38;4927009;29;20059;-75
2022/06/20 08:22:37;;;;;;;0.60;0.38;;;;;;;15.31;73.12;101889.72;4919096;29;20052;-76
2022/06/20 08:25:11;;;;;;;1.45;0.50;;;;;;;15.21;73.08;101888.53;4930832;29;20234;-75
2022/06/20 08:27:44;;;;;;;0.85;0.40;;;;;;;15.19;74.40;101888.50;4933270;29;20051;-75
2022/06/20 08:30:16;;;;;;;2.42;0.50;;;;;;;15.22;74.85;101893.81;4915438;29;20096;-74
2022/06/20 08:32:58;;;;;;;1.65;0.40;;;;;;;15.23;74.93;101890.38;4925110;29;20582;-75
2022/06/20 08:35:34;;;;;;;1.60;0.57;;;;;;;15.22;74.66;101901.63;4924727;29;20055;-75
2022/06/20 08:38:13;;;;;;;0.75;0.50;;;;;;;15.21;74.85;101894.66;4920543;29;20055;-75
2022/06/20 08:41:23;;;;;;;0.90;0.50;;;;;;;15.16;74.61;101896.22;4913762;29;20123;-74
2022/06/20 08:44:17;;;;;;;0.82;0.60;;;;;;;15.14;74.61;101892.72;4902872;29;20099;-74
2022/06/20 08:47:29;;;;;;;1.60;0.60;;;;;;;15.16;75.37;101895.34;4911651;29;20048;-74
2022/06/20 08:50:33;;;;;;;0.82;0.40;;;;;;;15.13;76.93;101895.28;4912745;29;20044;-74
2022/06/20 08:53:33;;;;;;;0.60;0.47;;;;;;;15.10;78.34;101900.41;4916172;29;20059;-75
2022/06/20 08:56:13;;;;;;;1.48;0.52;;;;;;;15.04;79.16;101895.88;4910192;28;20569;-74
2022/06/20 08:58:53;;;;;;;1.42;0.65;;;;;;;15.02;79.04;101900.16;4935074;29;20052;-73
2022/06/20 09:01:30;;;;;;;0.77;0.52;;;;;;;15.01;79.55;101895.81;4932549;29;20048;-74
2022/06/20 09:04:30;;;;;;;2.65;0.55;;;;;;;15.02;79.81;101897.56;4933634;29;20107;-74
2022/06/20 09:07:21;;;;;;;1.23;0.68;;;;;;;14.97;79.17;101894.81;4930420;29;20051;-73
2022/06/20 09:10:32;;;;;;;2.53;0.82;;;;;;;14.94;79.59;101892.13;4929308;29;20064;-74
2022/06/20 09:13:29;;;;;;;0.60;0.40;;;;;;;14.93;79.84;101905.09;4928663;29;20043;-74
2022/06/20 09:16:08;;;;;;;0.63;0.40;;;;;;;14.92;80.40;101905.94;4925804;29;20052;-73
2022/06/20 09:18:51;;;;;;;1.73;0.70;;;;;;;14.88;80.01;101900.63;4938554;29;20047;-74
2022/06/20 09:21:29;;;;;;;1.48;0.77;;;;;;;14.79;81.12;101895.13;4936254;29;20051;-75
2022/06/20 09:24:15;;;;;;;1.88;0.60;;;;;;;14.76;81.44;101892.44;4929434;29;20554;-74
2022/06/20 09:26:53;;;;;;;1.67;0.63;;;;;;;14.75;82.53;101892.41;4933455;29;20051;-74
2022/06/20 09:29:42;;;;;;;0.28;0.28;;;;;;;14.72;82.40;101893.19;4931571;29;20048;-75
2022/06/20 09:32:37;;;;;;;2.90;0.77;;;;;;;14.71;81.69;101901.84;4928924;29;20065;-75
2022/06/20 09:35:25;;;;;;;0.70;0.50;;;;;;;14.71;82.67;101894.03;4930085;29;20498;-74
2022/06/20 09:38:29;;;;;;;0.50;0.30;;;;;;;14.66;78.89;101898.22;4933133;29;20043;-77
2022/06/20 09:41:04;;;;;;;0.63;0.40;;;;;;;14.65;79.91;101904.25;4927694;29;20055;-74
2022/06/20 09:43:41;;;;;;;0.80;0.50;;;;;;;14.64;81.07;101899.91;4929167;29;20052;-75
2022/06/20 09:46:19;;;;;;;1.15;0.55;;;;;;;14.65;81.08;101902.53;4928247;29;20040;-75
2022/06/20 09:48:55;;;;;;;0.93;0.57;;;;;;;14.66;82.16;101906.94;4930261;29;20137;-75
2022/06/20 09:51:33;;;;;;;2.22;0.60;;;;;;;14.67;82.25;101905.19;4927114;29;20047;-75
2022/06/20 09:54:10;;;;;;;0.68;0.30;;;;;;;14.66;80.15;101909.53;4924140;29;20047;-74
2022/06/20 09:56:48;;;;;;;0.55;0.30;;;;;;;14.67;78.61;101915.63;4932044;28;20051;-75
2022/06/20 09:59:24;;;;;;;0.90;0.40;;;;;;;14.66;76.22;101900.84;4930272;29;20511;-75
2022/06/20 10:02:06;;;;;;;0.85;0.50;;;;;;;14.60;77.32;101892.81;4924382;29;20051;-75
2022/06/20 10:04:42;;;;;;;1.10;0.47;;;;;;;14.68;81.15;101909.56;4927431;29;20051;-75
2022/06/20 10:07:16;;;;;;;0.52;0.30;;;;;;;14.66;76.90;101911.25;4933764;29;20051;-74
2022/06/20 10:09:52;;;;;;;0.43;0.30;;;;;;;14.68;76.72;101911.28;4930207;29;20073;-75
2022/06/20 10:12:29;;;;;;;1.27;0.40;;;;;;;14.66;74.50;101914.75;4929239;29;20044;-75
2022/06/20 10:15:05;;;;;;;1.33;0.50;;;;;;;14.67;75.23;101915.63;4928760;29;20051;-75
2022/06/20 10:17:43;;;;;;;0.63;0.47;;;;;;;14.67;75.64;101915.63;4934254;29;20055;-74
2022/06/20 10:20:24;;;;;;;1.95;0.40;;;;;;;14.69;75.05;101919.16;4933715;29;20068;-75
2022/06/20 10:23:00;;;;;;;2.17;0.40;;;;;;;14.71;77.57;101917.50;4933090;29;20047;-75
2022/06/20 10:25:46;;;;;;;3.70;0.88;;;;;;;14.63;79.42;101904.19;4934135;29;20056;-74
2022/06/20 10:28:16;;;;;;;0.50;0.40;;;;;;;14.68;81.20;101921.69;4935142;29;20052;-75
2022/06/20 10:30:50;;;;;;;1.45;0.38;;;;;;;14.63;79.14;101918.94;4926051;29;20071;-75
2022/06/20 10:33:39;;;;;;;0.68;0.40;;;;;;;14.60;78.48;101924.94;4940788;29;20140;-75
2022/06/20 10:36:17;;;;;;;1.95;0.82;;;;;;;14.60;80.28;101937.09;4928775;29;20532;-74
2022/06/20 10:39:03;;;;;;;2.30;0.50;;;;;;;14.58;81.77;101929.22;4920827;29;20095;-75
2022/06/20 10:41:41;;;;;;;0.80;0.50;;;;;;;14.54;81.32;101931.66;4922120;29;20099;-74
2022/06/20 10:44:23;;;;;;;0.70;0.43;;;;;;;14.54;81.82;101923.84;4930415;29;20051;-74
2022/06/20 10:47:03;;;;;;;0.93;0.55;;;;;;;14.55;81.46;101933.47;4933373;29;20058;-75
2022/06/20 10:49:53;;;;;;;1.25;0.50;;;;;;;14.54;82.32;101926.44;4930865;29;20052;-74
2022/06/20 10:52:39;;;;;;;1.00;0.52;;;;;;;14.54;82.78;101934.25;4930285;29;20044;-74
2022/06/20 10:55:19;;;;;;;1.33;0.60;;;;;;;14.46;84.92;101929.69;4932709;29;20055;-76
2022/06/20 10:57:58;;;;;;;1.92;0.55;;;;;;;14.42;84.32;101940.84;4931715;28;20055;-75
2022/06/20 11:00:29;;;;;;;1.27;0.40;;;;;;;14.42;84.59;101934.75;4915280;29;20103;-74
2022/06/20 11:03:34;;;;;;;0.63;0.50;;;;;;;14.43;84.62;101928.69;4926091;29;20122;-75
2022/06/20 11:06:16;;;;;;;0.40;0.40;;;;;;;14.43;85.73;101931.28;4919521;29;20040;-75
2022/06/20 11:08:54;;;;;;;1.15;0.40;;;;;;;14.42;86.27;101935.63;4946947;29;20054;-74
2022/06/20 11:11:38;;;;;;;0.43;0.30;;;;;;;14.41;88.57;101933.00;4931172;29;20098;-75
2022/06/20 11:14:16;;;;;;;0.70;0.40;;;;;;;14.41;87.75;101928.66;4924757;29;20126;-75
2022/06/20 11:16:51;;;;;;;1.05;0.50;;;;;;;14.41;85.95;101933.88;4936202;29;20056;-75
2022/06/20 11:19:30;;;;;;;0.95;0.57;;;;;;;14.39;86.01;101934.66;4940850;29;20061;-74
2022/06/20 11:22:19;;;;;;;0.63;0.40;;;;;;;14.36;88.19;101932.84;4934764;29;20059;-74
2022/06/20 11:24:58;;;;;;;3.40;0.50;;;;;;;14.36;88.13;101925.03;4941919;29;20051;-74
2022/06/20 11:27:49;;;;;;;4.82;0.70;;;;;;;14.37;87.96;101934.59;4923067;29;20048;-74
2022/06/20 11:30:23;;;;;;;0.60;0.40;;;;;;;14.39;87.03;101932.06;4921082;29;20051;-74
2022/06/20 11:33:11;;;;;;;0.73;0.50;;;;;;;14.39;87.41;101930.34;4930975;29;20066;-74
2022/06/20 11:35:50;;;;;;;3.03;0.70;;;;;;;14.41;86.76;101939.09;4925156;29;20043;-74
2022/06/20 11:38:40;;;;;;;3.90;0.60;;;;;;;14.41;85.83;101928.66;4930626;29;20056;-74
2022/06/20 11:41:13;;;;;;;0.47;0.40;;;;;;;14.42;85.86;101938.22;4939626;29;20059;-74
2022/06/20 11:44:14;;;;;;;0.75;0.38;;;;;;;14.43;85.51;101941.72;4935855;29;20513;-75
2022/06/20 11:47:16;;;;;;;0.40;0.40;;;;;;;14.41;85.48;101933.00;4905864;29;20048;-74
2022/06/20 11:50:03;;;;;;;1.50;0.30;;;;;;;14.38;81.27;101933.75;4935430;29;20573;-74
2022/06/20 11:52:42;;;;;;;5.78;0.38;;;;;;;14.37;81.52;101946.75;4934405;29;20051;-74
2022/06/20 11:55:18;;;;;;;1.23;0.50;;;;;;;14.37;82.12;101942.41;4936042;29;20055;-74
2022/06/20 11:57:51;;;;;;;0.50;0.40;;;;;;;14.36;82.25;101938.06;4939193;28;20056;-74
2022/06/20 12:00:23;;;;;;;1.00;0.30;;;;;;;14.39;83.29;101945.06;4937681;29;20151;-75
2022/06/20 12:03:00;;;;;;;0.75;0.30;;;;;;;14.39;82.14;101945.94;4933313;29;20560;-75
2022/06/20 12:05:45;;;;;;;1.15;0.30;;;;;;;14.40;80.78;101952.91;4921483;29;20056;-74
2022/06/20 12:08:25;;;;;;;0.63;0.28;;;;;;;14.40;80.22;101952.91;4927917;29;20103;-74
2022/06/20 12:10:58;;;;;;;0.60;0.30;;;;;;;14.40;80.74;101952.03;4935304;29;20043;-75
2022/06/20 12:13:38;;;;;;;0.43;0.30;;;;;;;14.39;80.03;101955.50;4934871;29;20052;-74
2022/06/20 12:16:16;;;;;;;1.13;0.28;;;;;;;14.40;79.26;101955.53;4942801;29;20048;-74
2022/06/20 12:24:32;;;;;;;0.68;0.20;;;;;;;14.39;77.88;101958.97;4932395;29;20059;-74